createdAt,value
2019-02-21T00:00:44.009Z,7.50
2019-02-21T00:03:13.606Z,7.57
2019-02-21T00:05:42.933Z,7.57
2019-02-21T00:08:11.886Z,7.13
2019-02-21T00:10:40.991Z,7.57
2019-02-21T00:13:10.092Z,7.40
2019-02-21T00:15:39.050Z,7.97
2019-02-21T00:18:08.145Z,7.40
2019-02-21T00:20:37.150Z,7.27
2019-02-21T00:23:06.218Z,7.67
2019-02-21T00:25:35.546Z,8.57
2019-02-21T00:28:04.572Z,7.83
2019-02-21T00:30:35.494Z,7.67
2019-02-21T00:33:04.379Z,7.70
2019-02-21T00:35:33.347Z,8.37
2019-02-21T00:38:04.539Z,8.10
2019-02-21T00:40:33.833Z,8.40
2019-02-21T00:43:02.844Z,7.87
2019-02-21T00:45:31.985Z,8.17
2019-02-21T00:48:00.944Z,7.07
2019-02-21T00:50:30.077Z,7.90
2019-02-21T00:52:59.414Z,8.10
2019-02-21T00:55:28.405Z,7.80
2019-02-21T00:57:57.383Z,8.67
2019-02-21T01:00:26.406Z,7.53
2019-02-21T01:02:55.451Z,8.30
2019-02-21T01:05:24.653Z,7.80
2019-02-21T01:07:53.953Z,8.07
2019-02-21T01:10:22.975Z,7.83
2019-02-21T01:12:52.010Z,8.20
2019-02-21T01:15:21.382Z,8.03
2019-02-21T01:17:50.699Z,8.43
2019-02-21T01:20:19.659Z,8.30
2019-02-21T01:22:48.698Z,8.73
2019-02-21T01:25:17.714Z,8.93
2019-02-21T01:27:47.028Z,9.00
2019-02-21T01:30:16.363Z,9.53
2019-02-21T01:32:45.364Z,9.50
2019-02-21T01:35:14.385Z,9.90
2019-02-21T01:37:43.356Z,9.57
2019-02-21T01:40:12.376Z,9.93
2019-02-21T01:42:41.341Z,9.07
2019-02-21T01:45:10.549Z,9.47
2019-02-21T01:47:39.500Z,9.97
2019-02-21T01:50:08.888Z,9.70
2019-02-21T01:52:38.121Z,9.87
2019-02-21T01:55:09.318Z,10.10
2019-02-21T01:57:38.254Z,9.60
2019-02-21T02:00:08.485Z,9.87
2019-02-21T02:02:37.495Z,10.13
2019-02-21T02:05:06.933Z,10.20
2019-02-21T02:07:36.057Z,11.20
2019-02-21T02:10:05.325Z,10.90
2019-02-21T02:12:34.302Z,10.30
2019-02-21T02:15:03.587Z,10.70
2019-02-21T02:17:33.126Z,11.13
2019-02-21T02:20:02.203Z,10.83
2019-02-21T02:22:31.111Z,10.87
2019-02-21T02:25:00.300Z,11.10
2019-02-21T02:27:29.610Z,10.83
2019-02-21T02:29:58.817Z,10.77
2019-02-21T02:32:29.855Z,11.03
2019-02-21T02:34:59.902Z,11.33
2019-02-21T02:37:29.304Z,11.73
2019-02-21T02:39:58.305Z,11.60
2019-02-21T02:42:27.225Z,12.37
2019-02-21T02:44:56.182Z,11.83
2019-02-21T02:47:25.119Z,11.90
2019-02-21T02:49:54.167Z,12.20
2019-02-21T02:52:23.164Z,12.67
2019-02-21T02:54:52.138Z,12.60
2019-02-21T02:57:21.083Z,11.77
2019-02-21T02:59:50.120Z,12.20
2019-02-21T03:02:19.093Z,12.47
2019-02-21T03:04:48.205Z,13.30
2019-02-21T03:07:17.746Z,13.13
2019-02-21T03:09:46.705Z,12.60
2019-02-21T03:12:15.716Z,12.90
2019-02-21T03:14:44.680Z,12.97
2019-02-21T03:17:13.622Z,13.27
2019-02-21T03:19:42.637Z,12.60
2019-02-21T03:22:11.838Z,12.17
2019-02-21T03:24:42.020Z,12.57
2019-02-21T03:27:10.931Z,12.83
2019-02-21T03:29:39.911Z,12.20
2019-02-21T03:32:09.024Z,12.30
2019-02-21T03:34:37.985Z,13.23
2019-02-21T03:37:07.181Z,13.50
2019-02-21T03:39:36.146Z,12.37
2019-02-21T03:42:05.224Z,13.60
2019-02-21T03:44:34.182Z,12.77
2019-02-21T03:47:03.173Z,14.20
2019-02-21T03:49:32.213Z,13.97
2019-02-21T03:52:01.230Z,14.30
2019-02-21T03:54:30.506Z,13.80
2019-02-21T03:56:59.615Z,14.30
2019-02-21T03:59:28.728Z,15.47
2019-02-21T04:02:05.269Z,15.40
2019-02-21T04:04:28.686Z,15.43
2019-02-21T04:06:57.799Z,15.00
2019-02-21T04:09:26.984Z,15.73
2019-02-21T04:11:55.948Z,15.20
2019-02-21T04:14:25.057Z,15.67
2019-02-21T04:16:54.391Z,16.87
2019-02-21T04:19:23.379Z,17.00
2019-02-21T04:21:52.494Z,15.53
2019-02-21T04:24:21.447Z,16.07
2019-02-21T04:26:50.423Z,15.70
2019-02-21T04:29:19.443Z,15.80
2019-02-21T04:31:48.474Z,15.73
2019-02-21T04:34:17.431Z,17.67
2019-02-21T04:36:46.390Z,17.17
2019-02-21T04:39:15.398Z,18.40
2019-02-21T04:41:44.374Z,17.17
2019-02-21T04:44:13.332Z,17.77
2019-02-21T04:46:42.553Z,17.13
2019-02-21T04:49:11.610Z,16.97
2019-02-21T04:51:40.811Z,18.10
2019-02-21T04:54:09.755Z,18.67
2019-02-21T04:56:38.747Z,18.40
2019-02-21T04:59:07.937Z,17.60
2019-02-21T05:01:36.980Z,18.17
2019-02-21T05:04:05.939Z,18.33
2019-02-21T05:06:34.963Z,17.40
2019-02-21T05:09:07.395Z,18.70
2019-02-21T05:11:35.730Z,19.67
2019-02-21T05:14:04.709Z,19.37
2019-02-21T05:16:33.684Z,18.90
2019-02-21T05:19:02.722Z,18.47
2019-02-21T05:21:31.706Z,19.43
2019-02-21T05:24:00.727Z,19.17
2019-02-21T05:26:40.843Z,20.00
2019-02-21T05:29:13.694Z,18.47
2019-02-21T05:32:00.325Z,18.90
2019-02-21T05:34:39.983Z,19.00
2019-02-21T05:37:16.794Z,19.60
2019-02-21T05:39:54.830Z,18.43
2019-02-21T05:42:33.408Z,18.83
2019-02-21T05:45:13.212Z,19.63
2019-02-21T05:47:52.471Z,18.57
2019-02-21T05:50:49.363Z,19.87
2019-02-21T05:53:40.500Z,18.20
2019-02-21T05:56:15.805Z,19.67
2019-02-21T05:58:57.558Z,18.23
2019-02-21T06:01:37.367Z,18.63
2019-02-21T06:04:13.274Z,19.70
2019-02-21T06:06:49.214Z,20.37
2019-02-21T06:09:43.590Z,19.70
2019-02-21T06:12:19.050Z,20.13
2019-02-21T06:15:07.170Z,20.67
2019-02-21T06:18:05.202Z,19.73
2019-02-21T06:21:02.282Z,20.87
2019-02-21T06:23:49.382Z,20.33
2019-02-21T06:26:25.679Z,20.53
2019-02-21T06:29:17.624Z,21.03
2019-02-21T06:31:46.847Z,20.23
2019-02-21T06:34:15.806Z,20.37
2019-02-21T06:36:45.180Z,21.43
2019-02-21T06:39:14.508Z,21.03
2019-02-21T06:41:43.530Z,20.13
2019-02-21T06:44:12.527Z,20.77
2019-02-21T06:46:41.919Z,19.27
2019-02-21T06:49:11.001Z,20.90
2019-02-21T06:51:39.950Z,20.37
2019-02-21T06:54:09.197Z,20.87
2019-02-21T06:56:38.162Z,20.87
2019-02-21T06:59:07.200Z,20.07
2019-02-21T07:01:37.201Z,20.50
2019-02-21T07:04:06.187Z,21.80
2019-02-21T07:06:35.366Z,21.73
2019-02-21T07:09:05.582Z,21.77
2019-02-21T07:11:34.524Z,22.83
2019-02-21T07:14:03.918Z,22.13
2019-02-21T07:16:32.847Z,23.30
2019-02-21T07:19:01.881Z,22.33
2019-02-21T07:21:30.836Z,22.13
2019-02-21T07:23:59.827Z,21.70
2019-02-21T07:26:29.480Z,21.30
2019-02-21T07:28:58.527Z,22.63
2019-02-21T07:31:29.142Z,22.57
2019-02-21T07:33:58.050Z,22.93
2019-02-21T07:36:27.035Z,21.43
2019-02-21T07:39:08.581Z,22.63
2019-02-21T07:41:26.658Z,22.57
2019-02-21T07:43:56.435Z,21.07
2019-02-21T07:46:25.393Z,21.60
2019-02-21T07:48:54.402Z,22.43
2019-02-21T07:51:23.496Z,23.27
2019-02-21T07:53:52.527Z,22.80
2019-02-21T07:56:21.615Z,22.23
2019-02-21T07:58:50.581Z,23.77
2019-02-21T08:01:19.622Z,22.00
2019-02-21T08:03:48.878Z,22.77
2019-02-21T08:06:19.989Z,22.43
2019-02-21T08:08:49.490Z,21.97
2019-02-21T08:11:18.615Z,22.63
2019-02-21T08:13:47.608Z,23.47
2019-02-21T08:16:16.671Z,23.97
2019-02-21T08:18:45.724Z,23.63
2019-02-21T08:21:14.667Z,22.83
2019-02-21T08:23:50.571Z,22.87
2019-02-21T08:26:15.002Z,23.57
2019-02-21T08:28:43.923Z,23.60
2019-02-21T08:31:12.868Z,22.60
2019-02-21T08:33:58.294Z,23.13
2019-02-21T08:36:24.426Z,22.13
2019-02-21T08:38:53.404Z,22.70
2019-02-21T08:41:25.586Z,22.37
2019-02-21T08:43:53.532Z,22.40
2019-02-21T08:46:22.483Z,23.23
2019-02-21T08:48:51.403Z,22.27
2019-02-21T08:51:20.626Z,21.80
2019-02-21T08:53:49.559Z,22.33
2019-02-21T08:56:18.831Z,22.33
2019-02-21T08:58:48.053Z,21.93
2019-02-21T09:01:17.195Z,22.37
2019-02-21T09:03:46.601Z,22.70
2019-02-21T09:06:15.626Z,21.63
2019-02-21T09:08:44.514Z,21.43
2019-02-21T09:11:13.477Z,21.60
2019-02-21T09:13:42.534Z,23.27
2019-02-21T09:16:11.781Z,22.77
2019-02-21T09:18:40.779Z,21.10
2019-02-21T09:21:10.007Z,21.47
2019-02-21T09:23:39.024Z,23.23
2019-02-21T09:26:08.098Z,21.97
2019-02-21T09:28:37.126Z,22.40
2019-02-21T09:31:06.068Z,21.80
2019-02-21T09:33:37.142Z,21.63
2019-02-21T09:36:06.132Z,21.47
2019-02-21T09:38:35.347Z,20.23
2019-02-21T09:41:04.531Z,21.83
2019-02-21T09:43:33.600Z,21.00
2019-02-21T09:46:02.669Z,21.77
2019-02-21T09:48:31.627Z,21.37
2019-02-21T09:51:00.620Z,21.47
2019-02-21T09:53:29.631Z,20.87
2019-02-21T09:55:58.626Z,21.13
2019-02-21T09:58:27.843Z,20.60
2019-02-21T10:00:56.847Z,20.47
2019-02-21T10:03:25.907Z,21.07
2019-02-21T10:05:54.953Z,20.87
2019-02-21T10:08:24.055Z,20.70
2019-02-21T10:10:53.040Z,21.27
2019-02-21T10:13:22.007Z,20.83
2019-02-21T10:15:51.299Z,20.20
2019-02-21T10:18:20.333Z,19.97
2019-02-21T10:20:49.311Z,20.40
2019-02-21T10:23:18.390Z,18.97
2019-02-21T10:25:47.599Z,18.70
2019-02-21T10:28:16.608Z,19.43
2019-02-21T10:30:45.553Z,19.30
2019-02-21T10:33:14.767Z,18.60
2019-02-21T10:35:43.950Z,16.47
2019-02-21T10:38:13.162Z,18.80
2019-02-21T10:40:42.086Z,18.03
2019-02-21T10:43:11.054Z,18.47
2019-02-21T10:45:47.438Z,17.43
2019-02-21T10:48:10.791Z,17.60
2019-02-21T10:50:39.774Z,16.83
2019-02-21T10:53:08.734Z,17.37
2019-02-21T10:55:37.630Z,16.73
2019-02-21T10:58:06.605Z,17.23
2019-02-21T11:00:36.035Z,16.57
2019-02-21T11:03:05.071Z,22.20
2019-02-21T11:05:34.108Z,16.57
2019-02-21T11:08:03.108Z,16.23
2019-02-21T11:10:32.646Z,15.97
2019-02-21T11:13:01.651Z,16.37
2019-02-21T11:15:30.671Z,15.47
2019-02-21T11:17:59.712Z,14.70
2019-02-21T11:20:28.976Z,15.63
2019-02-21T11:22:58.024Z,15.47
2019-02-21T11:25:27.454Z,14.80
2019-02-21T11:27:56.426Z,13.93
2019-02-21T11:30:25.440Z,14.80
2019-02-21T11:32:54.461Z,14.20
2019-02-21T11:35:23.548Z,13.27
2019-02-21T11:37:52.755Z,12.97
2019-02-21T11:40:21.860Z,13.47
2019-02-21T11:42:51.127Z,12.77
2019-02-21T11:45:20.679Z,12.43
2019-02-21T11:47:49.681Z,12.80
2019-02-21T11:50:18.815Z,12.13
2019-02-21T11:52:47.806Z,12.70
2019-02-21T11:55:18.818Z,11.10
2019-02-21T11:57:47.834Z,11.73
2019-02-21T12:00:19.500Z,11.47
2019-02-21T12:02:48.446Z,10.93
2019-02-21T12:05:19.555Z,11.47
2019-02-21T12:07:48.079Z,11.83
2019-02-21T12:10:17.944Z,11.80
2019-02-21T12:12:47.094Z,10.97
2019-02-21T12:15:16.487Z,11.83
2019-02-21T12:17:45.490Z,10.63
2019-02-21T12:20:15.553Z,11.37
2019-02-21T12:22:44.566Z,12.03
2019-02-21T12:25:14.755Z,11.27
2019-02-21T12:27:43.824Z,11.13
2019-02-21T12:30:15.094Z,11.43
2019-02-21T12:32:44.042Z,11.47
2019-02-21T12:35:12.994Z,10.43
2019-02-21T12:37:42.314Z,11.40
2019-02-21T12:40:13.679Z,10.87
2019-02-21T12:42:42.568Z,11.70
2019-02-21T12:45:13.528Z,10.90
2019-02-21T12:47:50.808Z,10.93
2019-02-21T12:50:13.580Z,10.47
2019-02-21T12:52:42.527Z,14.10
2019-02-21T12:55:11.659Z,11.27
2019-02-21T12:57:40.746Z,9.87
2019-02-21T13:00:12.774Z,9.60
2019-02-21T13:02:41.798Z,8.63
2019-02-21T13:05:10.826Z,8.87
2019-02-21T13:07:39.860Z,8.47
2019-02-21T13:10:11.590Z,8.83
2019-02-21T13:12:40.534Z,9.50
2019-02-21T13:15:11.337Z,8.77
2019-02-21T13:17:40.358Z,9.33
2019-02-21T13:20:10.303Z,9.43
2019-02-21T13:22:39.246Z,9.40
2019-02-21T13:25:09.083Z,9.67
2019-02-21T13:27:38.123Z,9.43
2019-02-21T13:30:09.749Z,9.93
2019-02-21T13:32:38.939Z,10.60
2019-02-21T13:35:08.382Z,9.43
2019-02-21T13:37:37.611Z,9.17
2019-02-21T13:40:06.836Z,11.47
2019-02-21T13:42:35.800Z,8.50
2019-02-21T13:45:05.593Z,8.93
2019-02-21T13:47:34.578Z,8.70
2019-02-21T13:50:03.555Z,8.03
2019-02-21T13:52:32.537Z,8.10
2019-02-21T13:55:01.882Z,8.57
2019-02-21T13:57:31.114Z,7.93
2019-02-21T14:00:00.873Z,8.60
2019-02-21T14:02:29.966Z,8.50
2019-02-21T14:04:59.844Z,7.57
2019-02-21T14:07:29.171Z,7.83
2019-02-21T14:09:58.151Z,7.87
2019-02-21T14:12:27.403Z,7.90
2019-02-21T14:14:56.738Z,7.93
2019-02-21T14:17:25.654Z,7.07
2019-02-21T14:19:54.615Z,6.50
2019-02-21T14:22:24.047Z,7.40
2019-02-21T14:24:53.113Z,7.40
2019-02-21T14:27:22.114Z,7.40
2019-02-21T14:29:51.056Z,6.80
2019-02-21T14:32:20.042Z,7.67
2019-02-21T14:34:49.307Z,7.23
2019-02-21T14:37:18.300Z,7.70
2019-02-21T14:39:47.259Z,7.73
2019-02-21T14:42:17.124Z,7.63
2019-02-21T14:44:46.085Z,7.90
2019-02-21T14:47:15.303Z,8.60
2019-02-21T14:49:44.647Z,9.00
2019-02-21T14:52:13.750Z,8.87
2019-02-21T14:54:42.811Z,9.07
2019-02-21T14:57:11.780Z,8.37
2019-02-21T14:59:40.780Z,9.37
2019-02-21T15:02:10.090Z,8.43
2019-02-21T15:04:39.351Z,9.73
2019-02-21T15:07:08.320Z,9.97
2019-02-21T15:09:37.292Z,9.97
2019-02-21T15:12:06.540Z,9.97
2019-02-21T15:14:37.127Z,10.17
2019-02-21T15:17:06.133Z,10.23
2019-02-21T15:19:35.243Z,10.00
2019-02-21T15:22:04.461Z,10.60
2019-02-21T15:24:33.762Z,11.00
2019-02-21T15:27:08.579Z,13.40
2019-02-21T15:29:33.464Z,10.73
2019-02-21T15:32:10.794Z,11.07
2019-02-21T15:34:33.603Z,10.77
2019-02-21T15:37:03.058Z,11.53
2019-02-21T15:39:32.008Z,11.63
2019-02-21T15:42:01.308Z,12.10
2019-02-21T15:44:30.639Z,12.03
2019-02-21T15:46:59.590Z,14.17
2019-02-21T15:49:29.135Z,12.80
2019-02-21T15:51:58.202Z,13.00
2019-02-21T15:54:27.904Z,12.93
2019-02-21T15:56:57.267Z,22.73
2019-02-21T15:59:26.289Z,16.60
2019-02-21T16:01:55.597Z,17.63
2019-02-21T16:04:24.842Z,13.70
2019-02-21T16:06:53.862Z,16.97
2019-02-21T16:09:25.238Z,13.53
2019-02-21T16:11:53.375Z,17.33
2019-02-21T16:14:22.309Z,14.20
2019-02-21T16:16:51.318Z,14.90
2019-02-21T16:19:20.670Z,13.90
2019-02-21T16:21:51.377Z,14.50
2019-02-21T16:24:20.308Z,13.70
2019-02-21T16:26:49.606Z,14.27
2019-02-21T16:29:18.862Z,14.40
2019-02-21T16:31:48.089Z,14.13
2019-02-21T16:34:17.151Z,14.67
2019-02-21T16:36:46.736Z,15.97
2019-02-21T16:39:15.934Z,14.50
2019-02-21T16:41:45.976Z,15.20
2019-02-21T16:44:15.202Z,15.37
2019-02-21T16:46:44.098Z,16.00
2019-02-21T16:49:13.107Z,15.50
2019-02-21T16:51:42.119Z,15.87
2019-02-21T16:54:11.155Z,16.53
2019-02-21T16:56:40.366Z,15.90
2019-02-21T16:59:09.258Z,17.40
2019-02-21T17:01:38.190Z,16.23
2019-02-21T17:04:07.093Z,16.40
2019-02-21T17:06:36.336Z,18.43
2019-02-21T17:09:07.279Z,16.73
2019-02-21T17:11:36.237Z,17.33
2019-02-21T17:14:05.307Z,17.93
2019-02-21T17:16:34.274Z,17.70
2019-02-21T17:19:03.244Z,17.70
2019-02-21T17:21:32.288Z,18.27
2019-02-21T17:24:01.279Z,18.00
2019-02-21T17:26:31.016Z,17.20
2019-02-21T17:29:00.304Z,17.90
2019-02-21T17:31:29.739Z,18.00
2019-02-21T17:33:58.692Z,18.73
2019-02-21T17:36:27.628Z,17.50
2019-02-21T17:38:56.596Z,17.30
2019-02-21T17:41:25.602Z,18.37
2019-02-21T17:43:54.631Z,17.17
2019-02-21T17:46:23.648Z,16.50
2019-02-21T17:48:52.856Z,17.50
2019-02-21T17:51:22.188Z,17.73
2019-02-21T17:53:52.667Z,18.17
2019-02-21T17:56:22.171Z,17.90
2019-02-21T17:58:51.256Z,17.57
2019-02-21T18:01:20.214Z,18.17
2019-02-21T18:03:49.310Z,17.40
2019-02-21T18:06:18.310Z,17.93
2019-02-21T18:08:47.347Z,15.93
2019-02-21T18:11:17.561Z,17.93
2019-02-21T18:13:46.510Z,17.37
2019-02-21T18:16:15.370Z,18.23
2019-02-21T18:18:44.338Z,17.20
2019-02-21T18:21:13.359Z,16.77
2019-02-21T18:23:42.414Z,16.23
2019-02-21T18:26:17.206Z,17.57
2019-02-21T18:28:46.707Z,17.07
2019-02-21T18:31:15.691Z,17.03
2019-02-21T18:33:44.639Z,17.17
2019-02-21T18:36:13.691Z,17.90
2019-02-21T18:38:42.658Z,18.80
2019-02-21T18:41:12.298Z,18.57
2019-02-21T18:43:41.337Z,18.40
2019-02-21T18:46:10.372Z,18.57
2019-02-21T18:48:39.804Z,20.73
2019-02-21T18:51:08.763Z,19.57
2019-02-21T18:53:37.804Z,19.87
2019-02-21T18:56:07.099Z,20.67
2019-02-21T18:58:36.138Z,20.73
2019-02-21T19:01:05.534Z,22.03
2019-02-21T19:03:34.643Z,20.60
2019-02-21T19:06:03.962Z,21.80
2019-02-21T19:08:33.577Z,21.47
2019-02-21T19:11:02.588Z,21.03
2019-02-21T19:13:31.633Z,21.90
2019-02-21T19:16:00.676Z,21.07
2019-02-21T19:18:29.711Z,22.07
2019-02-21T19:20:58.794Z,21.30
2019-02-21T19:23:27.742Z,23.17
2019-02-21T19:25:56.830Z,22.10
2019-02-21T19:28:26.031Z,23.57
2019-02-21T19:31:20.033Z,24.00
2019-02-21T19:33:49.062Z,22.87
2019-02-21T19:36:18.210Z,23.33
2019-02-21T19:38:49.696Z,24.83
2019-02-21T19:41:18.731Z,26.30
2019-02-21T19:43:48.098Z,24.00
2019-02-21T19:46:17.127Z,26.30
2019-02-21T19:48:46.118Z,26.33
2019-02-21T19:51:15.491Z,26.83
2019-02-21T19:53:44.607Z,25.83
2019-02-21T19:56:13.630Z,27.33
2019-02-21T19:58:42.578Z,26.67
2019-02-21T20:01:11.617Z,27.77
2019-02-21T20:03:40.599Z,28.67
2019-02-21T20:06:09.896Z,28.40
2019-02-21T20:08:38.830Z,29.93
2019-02-21T20:11:07.930Z,29.03
2019-02-21T20:13:37.045Z,30.67
2019-02-21T20:16:06.189Z,30.93
2019-02-21T20:18:35.326Z,31.63
2019-02-21T20:21:04.359Z,30.63
2019-02-21T20:23:33.286Z,31.90
2019-02-21T20:26:03.189Z,33.50
2019-02-21T20:28:32.541Z,32.30
2019-02-21T20:31:01.573Z,32.93
2019-02-21T20:33:30.938Z,32.53
2019-02-21T20:36:00.270Z,32.93
2019-02-21T20:38:32.130Z,34.20
2019-02-21T20:41:00.095Z,34.07
2019-02-21T20:43:29.175Z,34.13
2019-02-21T20:46:00.971Z,35.00
2019-02-21T20:48:30.686Z,34.73
2019-02-21T20:51:01.673Z,34.23
2019-02-21T20:53:30.580Z,35.73
2019-02-21T20:55:59.576Z,36.27
2019-02-21T20:58:28.583Z,36.87
2019-02-21T21:00:58.390Z,37.17
2019-02-21T21:03:27.321Z,37.17
2019-02-21T21:05:57.570Z,38.57
2019-02-21T21:08:26.621Z,37.60
2019-02-21T21:10:55.562Z,41.87
2019-02-21T21:13:24.486Z,39.53
2019-02-21T21:15:53.756Z,40.40
2019-02-21T21:18:22.719Z,38.83
2019-02-21T21:20:51.722Z,38.23
2019-02-21T21:23:20.736Z,39.10
2019-02-21T21:25:49.775Z,40.20
2019-02-21T21:28:18.842Z,39.90
2019-02-21T21:30:47.893Z,40.20
2019-02-21T21:33:16.827Z,38.00
2019-02-21T21:35:45.858Z,39.10
2019-02-21T21:38:23.729Z,38.07
2019-02-21T21:40:46.792Z,38.20
2019-02-21T21:43:15.806Z,38.27
2019-02-21T21:45:44.934Z,37.60
2019-02-21T21:48:13.896Z,37.83
2019-02-21T21:50:42.876Z,37.03
2019-02-21T21:53:11.916Z,36.77
2019-02-21T21:55:40.937Z,35.80
2019-02-21T21:58:12.852Z,39.20
2019-02-21T22:00:40.836Z,43.43
2019-02-21T22:03:12.101Z,39.23
2019-02-21T22:05:41.591Z,39.33
2019-02-21T22:08:10.547Z,37.90
2019-02-21T22:10:39.578Z,41.57
2019-02-21T22:13:08.510Z,39.93
2019-02-21T22:15:37.471Z,37.37
2019-02-21T22:18:09.503Z,33.87
2019-02-21T22:20:38.709Z,37.70
2019-02-21T22:23:07.649Z,40.37
2019-02-21T22:25:37.379Z,42.80
2019-02-21T22:28:06.385Z,39.63
2019-02-21T22:30:35.577Z,38.23
2019-02-21T22:33:04.581Z,39.90
2019-02-21T22:35:33.674Z,38.33
2019-02-21T22:38:02.537Z,40.00
2019-02-21T22:40:31.757Z,38.40
2019-02-21T22:43:00.679Z,39.70
2019-02-21T22:45:29.699Z,40.73
2019-02-21T22:48:01.126Z,40.83
2019-02-21T22:50:30.211Z,40.60
2019-02-21T22:52:59.456Z,40.10
2019-02-21T22:55:28.666Z,38.87
2019-02-21T22:57:57.697Z,40.47
2019-02-21T23:01:23.954Z,40.10
2019-02-21T23:04:58.111Z,38.37
2019-02-21T23:07:53.377Z,41.57
2019-02-21T23:10:22.347Z,35.50
2019-02-21T23:12:51.416Z,37.80
2019-02-21T23:15:21.046Z,37.73
2019-02-21T23:17:50.000Z,36.87
2019-02-21T23:20:19.057Z,36.97
2019-02-21T23:22:47.999Z,35.13
2019-02-21T23:25:16.982Z,35.97
2019-02-21T23:27:45.926Z,34.37
2019-02-21T23:30:14.970Z,33.77
2019-02-21T23:32:43.868Z,35.93
2019-02-21T23:35:18.287Z,34.93
2019-02-21T23:37:47.246Z,35.47
2019-02-21T23:40:16.222Z,33.33
2019-02-21T23:42:45.111Z,34.07
2019-02-21T23:45:14.286Z,34.67
2019-02-21T23:47:49.727Z,33.70
2019-02-21T23:50:14.434Z,31.33
2019-02-21T23:52:43.493Z,27.80
2019-02-21T23:55:13.215Z,28.77
2019-02-21T23:57:42.147Z,28.73
